sensor_id;sensor_type;location;lat;lon;timestamp;pressure;altitude;pressure_sealevel;temperature;humidity
46876;BME280;32866;50.160;14.768;2023-05-27T00:00:50;100357.78;;;9.56;100.00
46876;BME280;32866;50.160;14.768;2023-05-27T00:03:16;100314.84;;;9.15;100.00
46876;BME280;32866;50.160;14.768;2023-05-27T00:05:42;100344.75;;;9.29;100.00
46876;BME280;32866;50.160;14.768;2023-05-27T00:08:07;100312.94;;;9.05;100.00
46876;BME280;32866;50.160;14.768;2023-05-27T00:10:33;100313.78;;;9.02;100.00
46876;BME280;32866;50.160;14.768;2023-05-27T00:12:58;100294.44;;;8.82;100.00
46876;BME280;32866;50.160;14.768;2023-05-27T00:15:23;100311.53;;;8.89;100.00
46876;BME280;32866;50.160;14.768;2023-05-27T00:17:49;100345.19;;;9.24;100.00
46876;BME280;32866;50.160;14.768;2023-05-27T00:20:15;100331.69;;;9.10;100.00
46876;BME280;32866;50.160;14.768;2023-05-27T00:22:41;100329.34;;;9.05;100.00
46876;BME280;32866;50.160;14.768;2023-05-27T00:25:07;100347.84;;;9.35;100.00
46876;BME280;32866;50.160;14.768;2023-05-27T00:27:32;100346.78;;;9.25;100.00
46876;BME280;32866;50.160;14.768;2023-05-27T00:29:59;100317.72;;;8.97;100.00
46876;BME280;32866;50.160;14.768;2023-05-27T00:32:25;100311.22;;;8.80;100.00
46876;BME280;32866;50.160;14.768;2023-05-27T00:34:50;100308.06;;;8.85;100.00
46876;BME280;32866;50.160;14.768;2023-05-27T00:37:16;100352.88;;;8.99;100.00
46876;BME280;32866;50.160;14.768;2023-05-27T00:39:41;100302.59;;;8.85;100.00
46876;BME280;32866;50.160;14.768;2023-05-27T00:42:06;100345.34;;;9.10;100.00
46876;BME280;32866;50.160;14.768;2023-05-27T00:44:32;100314.44;;;8.68;100.00
46876;BME280;32866;50.160;14.768;2023-05-27T00:46:58;100310.16;;;8.67;100.00
46876;BME280;32866;50.160;14.768;2023-05-27T00:49:23;100342.41;;;8.90;100.00
46876;BME280;32866;50.160;14.768;2023-05-27T00:51:51;100341.94;;;8.99;100.00
46876;BME280;32866;50.160;14.768;2023-05-27T00:54:17;100340.44;;;8.90;100.00
46876;BME280;32866;50.160;14.768;2023-05-27T00:56:43;100341.63;;;8.86;100.00
46876;BME280;32866;50.160;14.768;2023-05-27T00:59:09;100328.19;;;8.57;100.00
46876;BME280;32866;50.160;14.768;2023-05-27T01:01:34;100349.31;;;8.49;100.00
46876;BME280;32866;50.160;14.768;2023-05-27T01:04:02;100347.88;;;8.27;100.00
46876;BME280;32866;50.160;14.768;2023-05-27T01:12:18;100345.09;;;8.30;100.00
46876;BME280;32866;50.160;14.768;2023-05-27T01:14:45;100318.03;;;7.84;100.00
46876;BME280;32866;50.160;14.768;2023-05-27T01:17:14;100339.47;;;7.89;100.00
46876;BME280;32866;50.160;14.768;2023-05-27T01:19:42;100346.50;;;7.83;100.00
46876;BME280;32866;50.160;14.768;2023-05-27T01:22:12;100352.38;;;7.70;100.00
46876;BME280;32866;50.160;14.768;2023-05-27T01:24:38;100346.16;;;7.70;100.00
46876;BME280;32866;50.160;14.768;2023-05-27T01:27:04;100345.41;;;7.55;100.00
46876;BME280;32866;50.160;14.768;2023-05-27T01:29:30;100311.97;;;7.33;100.00
46876;BME280;32866;50.160;14.768;2023-05-27T01:32:04;100348.09;;;7.73;100.00
46876;BME280;32866;50.160;14.768;2023-05-27T01:34:57;100349.63;;;7.85;100.00
46876;BME280;32866;50.160;14.768;2023-05-27T01:37:25;100296.38;;;7.44;100.00
46876;BME280;32866;50.160;14.768;2023-05-27T01:39:51;100351.63;;;7.59;100.00
46876;BME280;32866;50.160;14.768;2023-05-27T01:42:19;100364.09;;;7.74;100.00
46876;BME280;32866;50.160;14.768;2023-05-27T01:44:45;100331.00;;;7.54;100.00
46876;BME280;32866;50.160;14.768;2023-05-27T01:47:10;100360.63;;;7.56;100.00
46876;BME280;32866;50.160;14.768;2023-05-27T01:49:36;100352.09;;;7.39;100.00
46876;BME280;32866;50.160;14.768;2023-05-27T01:52:01;100345.47;;;7.33;100.00
46876;BME280;32866;50.160;14.768;2023-05-27T01:54:27;100345.09;;;7.31;100.00
46876;BME280;32866;50.160;14.768;2023-05-27T01:56:52;100318.63;;;7.14;100.00
46876;BME280;32866;50.160;14.768;2023-05-27T01:59:17;100350.91;;;7.48;100.00
46876;BME280;32866;50.160;14.768;2023-05-27T02:01:43;100316.69;;;6.96;100.00
46876;BME280;32866;50.160;14.768;2023-05-27T02:04:08;100302.28;;;6.88;100.00
46876;BME280;32866;50.160;14.768;2023-05-27T02:06:34;100324.47;;;7.09;100.00
46876;BME280;32866;50.160;14.768;2023-05-27T02:08:59;100327.97;;;6.98;100.00
46876;BME280;32866;50.160;14.768;2023-05-27T02:11:25;100316.28;;;6.87;100.00
46876;BME280;32866;50.160;14.768;2023-05-27T02:13:51;100347.44;;;7.00;100.00
46876;BME280;32866;50.160;14.768;2023-05-27T02:16:17;100348.63;;;6.99;100.00
46876;BME280;32866;50.160;14.768;2023-05-27T02:18:43;100340.81;;;6.80;100.00
46876;BME280;32866;50.160;14.768;2023-05-27T02:21:08;100331.09;;;6.86;100.00
46876;BME280;32866;50.160;14.768;2023-05-27T02:23:33;100308.50;;;6.82;100.00
46876;BME280;32866;50.160;14.768;2023-05-27T02:25:59;100351.34;;;7.17;100.00
46876;BME280;32866;50.160;14.768;2023-05-27T02:28:26;100354.47;;;7.12;100.00
46876;BME280;32866;50.160;14.768;2023-05-27T02:30:51;100334.19;;;6.95;100.00
46876;BME280;32866;50.160;14.768;2023-05-27T02:33:16;100331.88;;;6.94;100.00
46876;BME280;32866;50.160;14.768;2023-05-27T02:35:42;100365.34;;;7.09;100.00
46876;BME280;32866;50.160;14.768;2023-05-27T02:38:07;100331.84;;;6.68;100.00
46876;BME280;32866;50.160;14.768;2023-05-27T02:40:32;100338.50;;;6.85;100.00
46876;BME280;32866;50.160;14.768;2023-05-27T02:42:58;100357.56;;;7.11;100.00
46876;BME280;32866;50.160;14.768;2023-05-27T02:45:23;100361.09;;;7.08;100.00
46876;BME280;32866;50.160;14.768;2023-05-27T02:47:49;100352.88;;;7.18;100.00
46876;BME280;32866;50.160;14.768;2023-05-27T02:50:15;100352.13;;;7.18;100.00
46876;BME280;32866;50.160;14.768;2023-05-27T02:52:41;100361.06;;;7.22;100.00
46876;BME280;32866;50.160;14.768;2023-05-27T02:55:07;100338.88;;;6.91;100.00
46876;BME280;32866;50.160;14.768;2023-05-27T02:57:32;100367.69;;;7.14;100.00
46876;BME280;32866;50.160;14.768;2023-05-27T02:59:57;100331.47;;;6.95;100.00
46876;BME280;32866;50.160;14.768;2023-05-27T03:02:23;100357.91;;;7.49;100.00
46876;BME280;32866;50.160;14.768;2023-05-27T03:04:48;100348.22;;;7.22;100.00
46876;BME280;32866;50.160;14.768;2023-05-27T03:07:14;100363.00;;;7.39;100.00
46876;BME280;32866;50.160;14.768;2023-05-27T03:09:39;100323.31;;;7.02;100.00
46876;BME280;32866;50.160;14.768;2023-05-27T03:12:05;100320.19;;;6.93;100.00
46876;BME280;32866;50.160;14.768;2023-05-27T03:14:31;100339.66;;;7.06;100.00
46876;BME280;32866;50.160;14.768;2023-05-27T03:16:57;100363.00;;;7.25;100.00
46876;BME280;32866;50.160;14.768;2023-05-27T03:19:22;100377.03;;;7.20;100.00
46876;BME280;32866;50.160;14.768;2023-05-27T03:21:47;100320.56;;;6.95;100.00
46876;BME280;32866;50.160;14.768;2023-05-27T03:24:13;100381.28;;;7.46;100.00
46876;BME280;32866;50.160;14.768;2023-05-27T03:26:38;100375.44;;;7.40;100.00
46876;BME280;32866;50.160;14.768;2023-05-27T03:29:04;100322.16;;;7.11;100.00
46876;BME280;32866;50.160;14.768;2023-05-27T03:31:29;100329.53;;;6.99;100.00
46876;BME280;32866;50.160;14.768;2023-05-27T03:33:55;100322.16;;;7.11;100.00
46876;BME280;32866;50.160;14.768;2023-05-27T03:36:20;100334.22;;;7.06;100.00
46876;BME280;32866;50.160;14.768;2023-05-27T03:38:46;100370.00;;;7.33;100.00
46876;BME280;32866;50.160;14.768;2023-05-27T03:41:12;100341.59;;;7.31;100.00
46876;BME280;32866;50.160;14.768;2023-05-27T03:43:37;100337.28;;;7.30;100.00
46876;BME280;32866;50.160;14.768;2023-05-27T03:46:03;100374.66;;;7.51;100.00
46876;BME280;32866;50.160;14.768;2023-05-27T03:48:28;100382.03;;;7.61;100.00
46876;BME280;32866;50.160;14.768;2023-05-27T03:50:53;100350.16;;;7.29;100.00
46876;BME280;32866;50.160;14.768;2023-05-27T03:53:19;100343.16;;;7.06;100.00
46876;BME280;32866;50.160;14.768;2023-05-27T03:55:44;100384.81;;;7.39;100.00
46876;BME280;32866;50.160;14.768;2023-05-27T03:58:10;100384.78;;;7.47;100.00
46876;BME280;32866;50.160;14.768;2023-05-27T04:00:39;100361.44;;;7.20;100.00
46876;BME280;32866;50.160;14.768;2023-05-27T04:03:04;100386.75;;;7.39;100.00
46876;BME280;32866;50.160;14.768;2023-05-27T04:05:30;100394.16;;;7.38;100.00
46876;BME280;32866;50.160;14.768;2023-05-27T04:07:56;100347.44;;;6.97;100.00
46876;BME280;32866;50.160;14.768;2023-05-27T04:10:21;100345.91;;;6.99;100.00
46876;BME280;32866;50.160;14.768;2023-05-27T04:12:47;100385.59;;;7.29;100.00
46876;BME280;32866;50.160;14.768;2023-05-27T04:15:12;100396.47;;;7.47;100.00
46876;BME280;32866;50.160;14.768;2023-05-27T04:17:37;100397.25;;;7.55;100.00
46876;BME280;32866;50.160;14.768;2023-05-27T04:20:04;100406.19;;;7.66;100.00
46876;BME280;32866;50.160;14.768;2023-05-27T04:22:39;100364.09;;;7.60;100.00
46876;BME280;32866;50.160;14.768;2023-05-27T04:25:05;100393.25;;;7.92;100.00
46876;BME280;32866;50.160;14.768;2023-05-27T04:27:31;100367.91;;;7.91;100.00
46876;BME280;32866;50.160;14.768;2023-05-27T04:29:56;100401.63;;;8.37;100.00
46876;BME280;32866;50.160;14.768;2023-05-27T04:32:21;100407.03;;;8.59;100.00
46876;BME280;32866;50.160;14.768;2023-05-27T04:34:47;100378.63;;;8.38;100.00
46876;BME280;32866;50.160;14.768;2023-05-27T04:37:14;100405.22;;;8.94;100.00
46876;BME280;32866;50.160;14.768;2023-05-27T04:39:42;100371.63;;;8.97;100.00
46876;BME280;32866;50.160;14.768;2023-05-27T04:42:11;100363.72;;;9.06;100.00
46876;BME280;32866;50.160;14.768;2023-05-27T04:44:37;100365.25;;;9.10;100.00
46876;BME280;32866;50.160;14.768;2023-05-27T04:47:03;100419.78;;;9.32;100.00
46876;BME280;32866;50.160;14.768;2023-05-27T04:49:29;100374.72;;;9.44;100.00
46876;BME280;32866;50.160;14.768;2023-05-27T04:51:55;100406.94;;;9.63;100.00
46876;BME280;32866;50.160;14.768;2023-05-27T04:54:20;100381.09;;;9.68;100.00
46876;BME280;32866;50.160;14.768;2023-05-27T04:56:46;100399.63;;;9.91;100.00
46876;BME280;32866;50.160;14.768;2023-05-27T04:59:12;100365.59;;;9.58;100.00
46876;BME280;32866;50.160;14.768;2023-05-27T05:01:42;100401.00;;;10.07;100.00
46876;BME280;32866;50.160;14.768;2023-05-27T05:04:26;100375.41;;;9.90;100.00
46876;BME280;32866;50.160;14.768;2023-05-27T05:06:51;100379.84;;;10.11;100.00
46876;BME280;32866;50.160;14.768;2023-05-27T05:09:17;100363.50;;;10.03;100.00
46876;BME280;32866;50.160;14.768;2023-05-27T05:11:42;100386.69;;;10.26;100.00
46876;BME280;32866;50.160;14.768;2023-05-27T05:14:08;100366.47;;;10.16;100.00
46876;BME280;32866;50.160;14.768;2023-05-27T05:16:33;100368.53;;;10.39;100.00
46876;BME280;32866;50.160;14.768;2023-05-27T05:18:58;100377.94;;;10.38;100.00
46876;BME280;32866;50.160;14.768;2023-05-27T05:21:24;100406.91;;;11.18;100.00
46876;BME280;32866;50.160;14.768;2023-05-27T05:23:49;100374.00;;;11.81;100.00
46876;BME280;32866;50.160;14.768;2023-05-27T05:26:15;100386.56;;;12.22;100.00
46876;BME280;32866;50.160;14.768;2023-05-27T05:28:40;100401.53;;;12.91;99.97
46876;BME280;32866;50.160;14.768;2023-05-27T05:31:05;100411.06;;;12.86;98.69
46876;BME280;32866;50.160;14.768;2023-05-27T05:33:31;100404.09;;;12.81;99.03
46876;BME280;32866;50.160;14.768;2023-05-27T05:35:56;100389.91;;;12.67;96.02
46876;BME280;32866;50.160;14.768;2023-05-27T05:38:21;100369.59;;;12.07;98.03
46876;BME280;32866;50.160;14.768;2023-05-27T05:40:47;100399.22;;;12.36;98.07
46876;BME280;32866;50.160;14.768;2023-05-27T05:43:15;100366.28;;;11.96;98.96
46876;BME280;32866;50.160;14.768;2023-05-27T05:45:40;100400.06;;;12.13;100.00
46876;BME280;32866;50.160;14.768;2023-05-27T05:48:06;100406.69;;;12.36;96.80
46876;BME280;32866;50.160;14.768;2023-05-27T05:50:31;100380.13;;;11.89;100.00
46876;BME280;32866;50.160;14.768;2023-05-27T05:52:58;100412.53;;;12.18;100.00
46876;BME280;32866;50.160;14.768;2023-05-27T05:55:23;100390.34;;;11.88;95.39
46876;BME280;32866;50.160;14.768;2023-05-27T05:57:48;100393.44;;;12.31;98.61
46876;BME280;32866;50.160;14.768;2023-05-27T06:00:14;100372.53;;;12.37;96.02
46876;BME280;32866;50.160;14.768;2023-05-27T06:02:40;100394.75;;;12.42;99.27
46876;BME280;32866;50.160;14.768;2023-05-27T06:05:05;100420.63;;;13.31;95.82
46876;BME280;32866;50.160;14.768;2023-05-27T06:07:31;100383.34;;;13.59;87.31
46876;BME280;32866;50.160;14.768;2023-05-27T06:09:56;100419.84;;;14.05;85.68
46876;BME280;32866;50.160;14.768;2023-05-27T06:12:21;100426.50;;;13.62;88.16
46876;BME280;32866;50.160;14.768;2023-05-27T06:14:47;100391.91;;;13.78;89.07
46876;BME280;32866;50.160;14.768;2023-05-27T06:17:12;100421.41;;;14.06;87.86
46876;BME280;32866;50.160;14.768;2023-05-27T06:19:38;100394.00;;;14.28;84.86
46876;BME280;32866;50.160;14.768;2023-05-27T06:22:04;100416.16;;;14.51;80.03
46876;BME280;32866;50.160;14.768;2023-05-27T06:24:30;100406.72;;;14.77;78.07
46876;BME280;32866;50.160;14.768;2023-05-27T06:26:56;100402.09;;;15.35;71.60
46876;BME280;32866;50.160;14.768;2023-05-27T06:29:21;100398.94;;;15.24;73.94
46876;BME280;32866;50.160;14.768;2023-05-27T06:31:46;100430.63;;;15.06;77.05
46876;BME280;32866;50.160;14.768;2023-05-27T06:34:13;100400.72;;;14.40;74.16
46876;BME280;32866;50.160;14.768;2023-05-27T06:36:38;100395.75;;;14.35;77.67
46876;BME280;32866;50.160;14.768;2023-05-27T06:39:04;100418.06;;;14.79;79.49
46876;BME280;32866;50.160;14.768;2023-05-27T06:41:29;100431.16;;;14.37;78.42
46876;BME280;32866;50.160;14.768;2023-05-27T06:43:55;100398.72;;;14.28;81.73
46876;BME280;32866;50.160;14.768;2023-05-27T06:46:20;100413.03;;;14.65;77.48
46876;BME280;32866;50.160;14.768;2023-05-27T06:48:46;100426.59;;;14.85;77.70
46876;BME280;32866;50.160;14.768;2023-05-27T06:51:11;100437.16;;;15.12;76.74
46876;BME280;32866;50.160;14.768;2023-05-27T06:53:37;100397.25;;;14.78;80.36
46876;BME280;32866;50.160;14.768;2023-05-27T06:56:02;100447.50;;;15.21;77.33
46876;BME280;32866;50.160;14.768;2023-05-27T06:58:27;100436.06;;;14.97;80.52
46876;BME280;32866;50.160;14.768;2023-05-27T07:00:53;100427.50;;;15.30;74.87
46876;BME280;32866;50.160;14.768;2023-05-27T07:03:18;100415.09;;;15.82;72.30
46876;BME280;32866;50.160;14.768;2023-05-27T07:05:43;100430.13;;;15.81;73.54
46876;BME280;32866;50.160;14.768;2023-05-27T07:08:09;100422.69;;;15.91;74.01
46876;BME280;32866;50.160;14.768;2023-05-27T07:10:34;100431.38;;;16.02;72.06
46876;BME280;32866;50.160;14.768;2023-05-27T07:12:59;100430.94;;;16.66;65.10
46876;BME280;32866;50.160;14.768;2023-05-27T07:15:25;100430.56;;;17.36;61.19
46876;BME280;32866;50.160;14.768;2023-05-27T07:17:52;100422.50;;;18.31;58.79
46876;BME280;32866;50.160;14.768;2023-05-27T07:20:17;100423.41;;;18.37;58.59
46876;BME280;32866;50.160;14.768;2023-05-27T07:22:43;100423.56;;;19.09;56.17
46876;BME280;32866;50.160;14.768;2023-05-27T07:25:08;100413.94;;;19.44;55.91
46876;BME280;32866;50.160;14.768;2023-05-27T07:27:34;100387.72;;;19.21;51.49
46876;BME280;32866;50.160;14.768;2023-05-27T07:29:59;100416.91;;;19.79;50.54
46876;BME280;32866;50.160;14.768;2023-05-27T07:32:24;100411.72;;;19.87;52.50
46876;BME280;32866;50.160;14.768;2023-05-27T07:34:50;100384.84;;;20.44;51.19
46876;BME280;32866;50.160;14.768;2023-05-27T07:37:15;100416.41;;;21.06;48.62
46876;BME280;32866;50.160;14.768;2023-05-27T07:39:41;100407.31;;;20.70;49.42
46876;BME280;32866;50.160;14.768;2023-05-27T07:42:06;100388.34;;;21.09;47.94
46876;BME280;32866;50.160;14.768;2023-05-27T07:44:31;100392.09;;;21.06;48.11
46876;BME280;32866;50.160;14.768;2023-05-27T07:46:57;100381.50;;;21.31;45.58
46876;BME280;32866;50.160;14.768;2023-05-27T07:49:22;100380.69;;;20.04;48.75
46876;BME280;32866;50.160;14.768;2023-05-27T07:51:50;100384.13;;;19.05;50.18
46876;BME280;32866;50.160;14.768;2023-05-27T07:54:15;100408.09;;;21.47;46.75
46876;BME280;32866;50.160;14.768;2023-05-27T07:56:40;100405.66;;;21.81;44.75
46876;BME280;32866;50.160;14.768;2023-05-27T07:59:05;100401.72;;;21.67;45.78
46876;BME280;32866;50.160;14.768;2023-05-27T08:01:31;100398.78;;;21.15;46.35
46876;BME280;32866;50.160;14.768;2023-05-27T08:03:58;100389.19;;;19.85;48.28
46876;BME280;32866;50.160;14.768;2023-05-27T08:06:24;100393.22;;;19.84;49.06
46876;BME280;32866;50.160;14.768;2023-05-27T08:08:49;100401.84;;;21.37;47.57
46876;BME280;32866;50.160;14.768;2023-05-27T08:11:14;100383.56;;;21.77;48.27
46876;BME280;32866;50.160;14.768;2023-05-27T08:13:40;100396.00;;;22.72;44.61
46876;BME280;32866;50.160;14.768;2023-05-27T08:16:05;100366.31;;;20.91;46.61
46876;BME280;32866;50.160;14.768;2023-05-27T08:18:32;100350.78;;;21.25;46.20
46876;BME280;32866;50.160;14.768;2023-05-27T08:20:57;100392.56;;;21.46;44.29
46876;BME280;32866;50.160;14.768;2023-05-27T08:23:22;100349.53;;;21.06;47.42
46876;BME280;32866;50.160;14.768;2023-05-27T08:25:47;100381.03;;;21.79;44.28
46876;BME280;32866;50.160;14.768;2023-05-27T08:28:13;100373.72;;;23.38;40.15
46876;BME280;32866;50.160;14.768;2023-05-27T08:30:39;100353.16;;;22.37;40.94
46876;BME280;32866;50.160;14.768;2023-05-27T08:33:04;100351.88;;;22.38;41.45
46876;BME280;32866;50.160;14.768;2023-05-27T08:35:30;100374.25;;;21.60;43.74
46876;BME280;32866;50.160;14.768;2023-05-27T08:37:55;100362.28;;;21.12;44.82
46876;BME280;32866;50.160;14.768;2023-05-27T08:40:21;100355.63;;;22.30;41.89
46876;BME280;32866;50.160;14.768;2023-05-27T08:42:47;100344.63;;;22.52;44.60
46876;BME280;32866;50.160;14.768;2023-05-27T08:45:13;100333.56;;;23.41;42.06
46876;BME280;32866;50.160;14.768;2023-05-27T08:47:39;100364.09;;;22.47;41.73
46876;BME280;32866;50.160;14.768;2023-05-27T08:50:06;100356.44;;;23.39;42.15
46876;BME280;32866;50.160;14.768;2023-05-27T08:52:32;100351.44;;;22.46;42.39
46876;BME280;32866;50.160;14.768;2023-05-27T08:54:59;100361.44;;;21.47;45.06
46876;BME280;32866;50.160;14.768;2023-05-27T08:57:30;100361.41;;;21.94;45.23
46876;BME280;32866;50.160;14.768;2023-05-27T08:59:57;100353.59;;;23.22;40.79
46876;BME280;32866;50.160;14.768;2023-05-27T09:02:22;100327.50;;;24.33;38.49
46876;BME280;32866;50.160;14.768;2023-05-27T09:04:49;100346.38;;;25.13;37.96
46876;BME280;32866;50.160;14.768;2023-05-27T09:07:15;100337.28;;;25.54;36.95
46876;BME280;32866;50.160;14.768;2023-05-27T09:09:40;100343.63;;;25.08;37.87
46876;BME280;32866;50.160;14.768;2023-05-27T09:12:06;100319.63;;;24.20;38.47
46876;BME280;32866;50.160;14.768;2023-05-27T09:14:34;100328.28;;;23.65;38.91
46876;BME280;32866;50.160;14.768;2023-05-27T09:17:06;100326.81;;;22.98;39.55
46876;BME280;32866;50.160;14.768;2023-05-27T09:19:32;100297.16;;;22.20;40.88
46876;BME280;32866;50.160;14.768;2023-05-27T09:21:58;100331.56;;;22.81;42.12
46876;BME280;32866;50.160;14.768;2023-05-27T09:24:23;100304.53;;;23.10;40.67
46876;BME280;32866;50.160;14.768;2023-05-27T09:26:53;100297.50;;;25.03;38.09
46876;BME280;32866;50.160;14.768;2023-05-27T09:29:19;100321.63;;;26.01;35.19
46876;BME280;32866;50.160;14.768;2023-05-27T09:31:45;100329.66;;;25.02;36.50
46876;BME280;32866;50.160;14.768;2023-05-27T09:34:12;100331.63;;;25.60;36.36
46876;BME280;32866;50.160;14.768;2023-05-27T09:36:49;100328.81;;;24.15;36.42
46876;BME280;32866;50.160;14.768;2023-05-27T09:39:16;100325.00;;;22.41;39.55
46876;BME280;32866;50.160;14.768;2023-05-27T09:41:42;100324.34;;;23.18;39.61
46876;BME280;32866;50.160;14.768;2023-05-27T09:44:08;100318.88;;;24.19;36.90
46876;BME280;32866;50.160;14.768;2023-05-27T09:46:34;100327.03;;;24.00;36.83
46876;BME280;32866;50.160;14.768;2023-05-27T09:49:00;100319.53;;;24.76;38.38
46876;BME280;32866;50.160;14.768;2023-05-27T09:51:27;100296.97;;;26.68;34.76
46876;BME280;32866;50.160;14.768;2023-05-27T09:53:53;100313.06;;;27.49;33.98
46876;BME280;32866;50.160;14.768;2023-05-27T09:56:26;100321.25;;;27.09;33.50
46876;BME280;32866;50.160;14.768;2023-05-27T09:58:54;100311.41;;;27.40;33.93
46876;BME280;32866;50.160;14.768;2023-05-27T10:01:21;100294.16;;;25.88;33.14
46876;BME280;32866;50.160;14.768;2023-05-27T10:03:51;100296.00;;;27.03;34.12
46876;BME280;32866;50.160;14.768;2023-05-27T10:06:17;100304.16;;;28.23;32.21
46876;BME280;32866;50.160;14.768;2023-05-27T10:08:44;100304.69;;;28.08;31.58
46876;BME280;32866;50.160;14.768;2023-05-27T10:11:12;100297.91;;;27.52;32.10
46876;BME280;32866;50.160;14.768;2023-05-27T10:13:38;100262.47;;;27.75;32.18
46876;BME280;32866;50.160;14.768;2023-05-27T10:16:04;100294.41;;;28.10;32.30
46876;BME280;32866;50.160;14.768;2023-05-27T10:18:30;100279.44;;;28.02;33.19
46876;BME280;32866;50.160;14.768;2023-05-27T10:21:00;100290.38;;;26.84;34.68
46876;BME280;32866;50.160;14.768;2023-05-27T10:23:27;100285.72;;;26.68;34.04
46876;BME280;32866;50.160;14.768;2023-05-27T10:26:01;100276.84;;;26.63;33.40
46876;BME280;32866;50.160;14.768;2023-05-27T10:28:31;100279.28;;;26.73;34.40
46876;BME280;32866;50.160;14.768;2023-05-27T10:31:08;100277.44;;;26.32;34.12
46876;BME280;32866;50.160;14.768;2023-05-27T10:33:39;100271.44;;;26.41;33.79
46876;BME280;32866;50.160;14.768;2023-05-27T10:36:08;100268.50;;;25.42;37.42
46876;BME280;32866;50.160;14.768;2023-05-27T10:38:35;100267.59;;;25.59;36.66
46876;BME280;32866;50.160;14.768;2023-05-27T10:41:01;100244.06;;;24.90;37.42
46876;BME280;32866;50.160;14.768;2023-05-27T10:43:29;100249.09;;;24.55;37.69
46876;BME280;32866;50.160;14.768;2023-05-27T10:46:07;100265.78;;;24.78;37.10
46876;BME280;32866;50.160;14.768;2023-05-27T10:48:33;100270.31;;;23.83;39.22
46876;BME280;32866;50.160;14.768;2023-05-27T10:50:59;100257.56;;;23.42;39.24
46876;BME280;32866;50.160;14.768;2023-05-27T10:53:28;100269.00;;;23.44;40.02
46876;BME280;32866;50.160;14.768;2023-05-27T10:55:53;100218.41;;;23.70;38.39
46876;BME280;32866;50.160;14.768;2023-05-27T10:58:20;100260.97;;;22.86;39.05
46876;BME280;32866;50.160;14.768;2023-05-27T11:00:50;100247.50;;;22.85;39.97
46876;BME280;32866;50.160;14.768;2023-05-27T11:03:23;100257.81;;;23.56;39.20
46876;BME280;32866;50.160;14.768;2023-05-27T11:06:03;100249.72;;;24.84;36.92
46876;BME280;32866;50.160;14.768;2023-05-27T11:08:30;100222.25;;;24.71;34.65
46876;BME280;32866;50.160;14.768;2023-05-27T11:11:03;100248.34;;;25.02;35.38
46876;BME280;32866;50.160;14.768;2023-05-27T11:13:43;100246.50;;;24.63;36.95
46876;BME280;32866;50.160;14.768;2023-05-27T11:16:10;100241.66;;;25.11;35.11
46876;BME280;32866;50.160;14.768;2023-05-27T11:18:44;100246.25;;;25.14;32.29
46876;BME280;32866;50.160;14.768;2023-05-27T11:21:11;100238.97;;;24.94;31.65
46876;BME280;32866;50.160;14.768;2023-05-27T11:23:40;100216.97;;;25.09;30.69
46876;BME280;32866;50.160;14.768;2023-05-27T11:26:15;100230.81;;;25.38;31.40
46876;BME280;32866;50.160;14.768;2023-05-27T11:28:57;100205.66;;;25.21;30.65
46876;BME280;32866;50.160;14.768;2023-05-27T11:31:30;100225.88;;;25.49;29.83
46876;BME280;32866;50.160;14.768;2023-05-27T11:33:56;100224.53;;;25.86;31.47
46876;BME280;32866;50.160;14.768;2023-05-27T11:36:25;100221.38;;;25.96;30.00
46876;BME280;32866;50.160;14.768;2023-05-27T11:38:56;100222.81;;;26.08;29.56
46876;BME280;32866;50.160;14.768;2023-05-27T11:41:24;100219.59;;;25.98;30.04
46876;BME280;32866;50.160;14.768;2023-05-27T11:43:58;100213.31;;;25.86;30.47
46876;BME280;32866;50.160;14.768;2023-05-27T11:46:45;100212.25;;;25.89;30.80
46876;BME280;32866;50.160;14.768;2023-05-27T11:49:14;100209.94;;;26.18;30.16
46876;BME280;32866;50.160;14.768;2023-05-27T11:51:42;100174.66;;;26.23;30.14
46876;BME280;32866;50.160;14.768;2023-05-27T11:54:20;100181.06;;;26.80;29.65
46876;BME280;32866;50.160;14.768;2023-05-27T11:56:48;100191.03;;;27.92;29.45
46876;BME280;32866;50.160;14.768;2023-05-27T11:59:13;100171.03;;;27.96;29.58
46876;BME280;32866;50.160;14.768;2023-05-27T12:01:40;100165.50;;;28.17;27.26
46876;BME280;32866;50.160;14.768;2023-05-27T12:04:05;100188.22;;;27.79;28.56
46876;BME280;32866;50.160;14.768;2023-05-27T12:06:31;100184.06;;;27.53;28.98
46876;BME280;32866;50.160;14.768;2023-05-27T12:08:57;100188.03;;;27.44;29.88
46876;BME280;32866;50.160;14.768;2023-05-27T12:11:22;100158.00;;;27.20;29.78
46876;BME280;32866;50.160;14.768;2023-05-27T12:13:48;100173.13;;;27.49;29.09
46876;BME280;32866;50.160;14.768;2023-05-27T12:16:13;100146.41;;;27.69;28.77
46876;BME280;32866;50.160;14.768;2023-05-27T12:18:39;100162.31;;;27.80;28.86
46876;BME280;32866;50.160;14.768;2023-05-27T12:21:06;100174.88;;;28.59;29.08
46876;BME280;32866;50.160;14.768;2023-05-27T12:23:32;100168.88;;;28.97;26.61
46876;BME280;32866;50.160;14.768;2023-05-27T12:25:58;100145.34;;;27.72;29.85
46876;BME280;32866;50.160;14.768;2023-05-27T12:28:23;100140.59;;;28.07;28.86
46876;BME280;32866;50.160;14.768;2023-05-27T12:30:49;100177.22;;;29.03;27.04
46876;BME280;32866;50.160;14.768;2023-05-27T12:33:14;100143.00;;;29.20;27.80
46876;BME280;32866;50.160;14.768;2023-05-27T12:35:40;100167.53;;;30.40;26.32
46876;BME280;32866;50.160;14.768;2023-05-27T12:38:06;100143.13;;;30.22;26.16
46876;BME280;32866;50.160;14.768;2023-05-27T12:40:31;100147.47;;;30.30;25.70
46876;BME280;32866;50.160;14.768;2023-05-27T12:42:58;100168.06;;;30.39;26.22